sensor_id;sensor_type;location;lat;lon;timestamp;P1;durP1;ratioP1;P2;durP2;ratioP2
6505;SDS011;3286;49.858;8.768;2022-08-14T00:01:10;3.65;;;3.20;;
6505;SDS011;3286;49.858;8.768;2022-08-14T00:03:37;4.00;;;3.33;;
6505;SDS011;3286;49.858;8.768;2022-08-14T00:06:07;3.80;;;3.45;;
6505;SDS011;3286;49.858;8.768;2022-08-14T00:08:38;3.70;;;3.40;;
6505;SDS011;3286;49.858;8.768;2022-08-14T00:11:05;3.67;;;3.38;;
6505;SDS011;3286;49.858;8.768;2022-08-14T00:13:34;5.10;;;3.58;;
6505;SDS011;3286;49.858;8.768;2022-08-14T00:16:01;4.15;;;3.50;;
6505;SDS011;3286;49.858;8.768;2022-08-14T00:18:28;5.22;;;4.18;;
6505;SDS011;3286;49.858;8.768;2022-08-14T00:20:55;4.88;;;3.55;;
6505;SDS011;3286;49.858;8.768;2022-08-14T00:23:26;4.57;;;3.30;;
6505;SDS011;3286;49.858;8.768;2022-08-14T00:25:53;4.40;;;3.65;;
6505;SDS011;3286;49.858;8.768;2022-08-14T00:28:21;5.55;;;3.83;;
6505;SDS011;3286;49.858;8.768;2022-08-14T00:30:51;3.80;;;3.50;;
6505;SDS011;3286;49.858;8.768;2022-08-14T00:33:21;3.40;;;3.10;;
6505;SDS011;3286;49.858;8.768;2022-08-14T00:35:48;3.90;;;3.25;;
6505;SDS011;3286;49.858;8.768;2022-08-14T00:38:18;4.38;;;3.97;;
6505;SDS011;3286;49.858;8.768;2022-08-14T00:40:47;3.92;;;3.60;;
6505;SDS011;3286;49.858;8.768;2022-08-14T00:43:14;4.07;;;3.67;;
6505;SDS011;3286;49.858;8.768;2022-08-14T00:45:41;4.60;;;3.88;;
6505;SDS011;3286;49.858;8.768;2022-08-14T00:48:08;4.78;;;4.00;;
6505;SDS011;3286;49.858;8.768;2022-08-14T00:50:35;6.28;;;4.00;;
6505;SDS011;3286;49.858;8.768;2022-08-14T00:53:04;11.02;;;3.92;;
6505;SDS011;3286;49.858;8.768;2022-08-14T00:55:35;8.02;;;4.22;;
6505;SDS011;3286;49.858;8.768;2022-08-14T00:58:06;5.10;;;3.90;;
6505;SDS011;3286;49.858;8.768;2022-08-14T01:00:51;4.32;;;3.72;;
6505;SDS011;3286;49.858;8.768;2022-08-14T01:03:18;6.97;;;3.95;;
6505;SDS011;3286;49.858;8.768;2022-08-14T01:05:47;5.07;;;3.80;;
6505;SDS011;3286;49.858;8.768;2022-08-14T01:08:17;5.72;;;4.05;;
6505;SDS011;3286;49.858;8.768;2022-08-14T01:10:46;4.22;;;3.83;;
6505;SDS011;3286;49.858;8.768;2022-08-14T01:13:18;8.15;;;3.75;;
6505;SDS011;3286;49.858;8.768;2022-08-14T01:15:48;6.05;;;4.22;;
6505;SDS011;3286;49.858;8.768;2022-08-14T01:18:16;4.95;;;3.75;;
6505;SDS011;3286;49.858;8.768;2022-08-14T01:21:03;4.55;;;3.88;;
6505;SDS011;3286;49.858;8.768;2022-08-14T01:23:36;4.35;;;3.53;;
6505;SDS011;3286;49.858;8.768;2022-08-14T01:26:06;4.70;;;4.20;;
6505;SDS011;3286;49.858;8.768;2022-08-14T01:28:33;4.93;;;3.90;;
6505;SDS011;3286;49.858;8.768;2022-08-14T01:31:03;5.32;;;4.82;;
6505;SDS011;3286;49.858;8.768;2022-08-14T01:33:32;4.30;;;3.90;;
6505;SDS011;3286;49.858;8.768;2022-08-14T01:36:02;4.93;;;4.43;;
6505;SDS011;3286;49.858;8.768;2022-08-14T01:38:32;4.70;;;4.05;;
6505;SDS011;3286;49.858;8.768;2022-08-14T01:41:04;4.20;;;3.80;;
6505;SDS011;3286;49.858;8.768;2022-08-14T01:43:33;5.57;;;4.00;;
6505;SDS011;3286;49.858;8.768;2022-08-14T01:46:12;4.82;;;4.10;;
6505;SDS011;3286;49.858;8.768;2022-08-14T01:48:41;5.35;;;4.13;;
6505;SDS011;3286;49.858;8.768;2022-08-14T01:51:10;4.63;;;4.22;;
6505;SDS011;3286;49.858;8.768;2022-08-14T01:53:41;4.68;;;4.28;;
6505;SDS011;3286;49.858;8.768;2022-08-14T01:56:09;5.13;;;4.57;;
6505;SDS011;3286;49.858;8.768;2022-08-14T01:58:36;4.80;;;4.28;;
6505;SDS011;3286;49.858;8.768;2022-08-14T02:01:03;4.53;;;4.13;;
6505;SDS011;3286;49.858;8.768;2022-08-14T02:03:38;6.53;;;4.20;;
6505;SDS011;3286;49.858;8.768;2022-08-14T02:06:06;4.60;;;4.05;;
6505;SDS011;3286;49.858;8.768;2022-08-14T02:08:36;5.93;;;4.95;;
6505;SDS011;3286;49.858;8.768;2022-08-14T02:11:06;7.43;;;4.70;;
6505;SDS011;3286;49.858;8.768;2022-08-14T02:13:43;5.70;;;4.22;;
6505;SDS011;3286;49.858;8.768;2022-08-14T02:16:11;6.70;;;4.68;;
6505;SDS011;3286;49.858;8.768;2022-08-14T02:18:40;5.38;;;4.57;;
6505;SDS011;3286;49.858;8.768;2022-08-14T02:21:08;5.22;;;4.72;;
6505;SDS011;3286;49.858;8.768;2022-08-14T02:23:36;4.97;;;4.47;;
6505;SDS011;3286;49.858;8.768;2022-08-14T02:26:13;5.88;;;4.75;;
6505;SDS011;3286;49.858;8.768;2022-08-14T02:28:42;5.68;;;5.07;;
6505;SDS011;3286;49.858;8.768;2022-08-14T02:31:10;8.98;;;5.60;;
6505;SDS011;3286;49.858;8.768;2022-08-14T02:33:39;6.45;;;4.95;;
6505;SDS011;3286;49.858;8.768;2022-08-14T02:36:07;6.45;;;5.20;;
6505;SDS011;3286;49.858;8.768;2022-08-14T02:38:35;6.70;;;5.22;;
6505;SDS011;3286;49.858;8.768;2022-08-14T02:41:06;5.55;;;5.05;;
6505;SDS011;3286;49.858;8.768;2022-08-14T02:43:38;8.15;;;5.22;;
6505;SDS011;3286;49.858;8.768;2022-08-14T02:46:08;6.38;;;5.53;;
6505;SDS011;3286;49.858;8.768;2022-08-14T02:48:36;8.88;;;5.43;;
6505;SDS011;3286;49.858;8.768;2022-08-14T02:51:05;7.25;;;5.47;;
6505;SDS011;3286;49.858;8.768;2022-08-14T02:53:34;5.68;;;5.18;;
6505;SDS011;3286;49.858;8.768;2022-08-14T02:56:05;10.32;;;5.72;;
6505;SDS011;3286;49.858;8.768;2022-08-14T02:58:34;6.55;;;5.47;;
6505;SDS011;3286;49.858;8.768;2022-08-14T03:01:04;9.95;;;5.15;;
6505;SDS011;3286;49.858;8.768;2022-08-14T03:03:31;6.28;;;4.78;;
6505;SDS011;3286;49.858;8.768;2022-08-14T03:05:58;5.57;;;5.03;;
6505;SDS011;3286;49.858;8.768;2022-08-14T03:08:25;6.72;;;5.40;;
6505;SDS011;3286;49.858;8.768;2022-08-14T03:10:56;7.45;;;5.45;;
6505;SDS011;3286;49.858;8.768;2022-08-14T03:13:24;5.97;;;5.38;;
6505;SDS011;3286;49.858;8.768;2022-08-14T03:15:51;6.35;;;5.78;;
6505;SDS011;3286;49.858;8.768;2022-08-14T03:18:19;6.55;;;5.55;;
6505;SDS011;3286;49.858;8.768;2022-08-14T03:20:48;6.18;;;5.28;;
6505;SDS011;3286;49.858;8.768;2022-08-14T03:23:15;6.07;;;5.43;;
6505;SDS011;3286;49.858;8.768;2022-08-14T03:25:42;8.30;;;5.63;;
6505;SDS011;3286;49.858;8.768;2022-08-14T03:28:09;6.43;;;5.70;;
6505;SDS011;3286;49.858;8.768;2022-08-14T03:30:37;8.35;;;5.72;;
6505;SDS011;3286;49.858;8.768;2022-08-14T03:33:04;8.20;;;6.68;;
6505;SDS011;3286;49.858;8.768;2022-08-14T03:35:32;10.98;;;6.78;;
6505;SDS011;3286;49.858;8.768;2022-08-14T03:38:03;10.35;;;6.25;;
6505;SDS011;3286;49.858;8.768;2022-08-14T03:40:33;6.35;;;5.72;;
6505;SDS011;3286;49.858;8.768;2022-08-14T03:43:02;6.38;;;5.72;;
6505;SDS011;3286;49.858;8.768;2022-08-14T03:45:29;7.72;;;5.10;;
6505;SDS011;3286;49.858;8.768;2022-08-14T03:47:58;6.00;;;5.45;;
6505;SDS011;3286;49.858;8.768;2022-08-14T03:50:25;7.55;;;5.68;;
6505;SDS011;3286;49.858;8.768;2022-08-14T03:52:52;8.27;;;5.82;;
6505;SDS011;3286;49.858;8.768;2022-08-14T03:55:19;6.75;;;5.55;;
6505;SDS011;3286;49.858;8.768;2022-08-14T03:57:46;7.30;;;5.80;;
6505;SDS011;3286;49.858;8.768;2022-08-14T04:00:13;6.38;;;5.78;;
6505;SDS011;3286;49.858;8.768;2022-08-14T04:02:40;8.75;;;6.10;;
6505;SDS011;3286;49.858;8.768;2022-08-14T04:05:09;9.90;;;6.40;;
6505;SDS011;3286;49.858;8.768;2022-08-14T04:07:36;9.32;;;5.85;;
6505;SDS011;3286;49.858;8.768;2022-08-14T04:10:04;8.10;;;6.45;;
6505;SDS011;3286;49.858;8.768;2022-08-14T04:12:32;7.57;;;6.80;;
6505;SDS011;3286;49.858;8.768;2022-08-14T04:14:59;7.38;;;6.60;;
6505;SDS011;3286;49.858;8.768;2022-08-14T04:17:26;12.32;;;7.47;;
6505;SDS011;3286;49.858;8.768;2022-08-14T04:19:53;7.35;;;6.07;;
6505;SDS011;3286;49.858;8.768;2022-08-14T04:22:21;7.75;;;6.00;;
6505;SDS011;3286;49.858;8.768;2022-08-14T04:24:49;6.47;;;5.88;;
6505;SDS011;3286;49.858;8.768;2022-08-14T04:27:17;8.95;;;6.60;;
6505;SDS011;3286;49.858;8.768;2022-08-14T04:29:43;7.15;;;6.38;;
6505;SDS011;3286;49.858;8.768;2022-08-14T04:32:10;7.05;;;6.35;;
6505;SDS011;3286;49.858;8.768;2022-08-14T04:34:39;8.52;;;6.72;;
6505;SDS011;3286;49.858;8.768;2022-08-14T04:37:06;10.45;;;6.38;;
6505;SDS011;3286;49.858;8.768;2022-08-14T04:39:52;8.35;;;6.40;;
6505;SDS011;3286;49.858;8.768;2022-08-14T04:42:37;9.30;;;6.55;;
6505;SDS011;3286;49.858;8.768;2022-08-14T04:45:27;8.55;;;6.28;;
6505;SDS011;3286;49.858;8.768;2022-08-14T04:48:04;7.53;;;6.38;;
6505;SDS011;3286;49.858;8.768;2022-08-14T04:50:37;7.18;;;6.47;;
6505;SDS011;3286;49.858;8.768;2022-08-14T04:53:05;8.82;;;6.35;;
6505;SDS011;3286;49.858;8.768;2022-08-14T04:55:33;8.05;;;7.00;;
6505;SDS011;3286;49.858;8.768;2022-08-14T04:58:00;8.00;;;7.00;;
6505;SDS011;3286;49.858;8.768;2022-08-14T05:00:29;9.77;;;7.53;;
6505;SDS011;3286;49.858;8.768;2022-08-14T05:02:56;7.25;;;6.50;;
6505;SDS011;3286;49.858;8.768;2022-08-14T05:05:23;7.47;;;6.30;;
6505;SDS011;3286;49.858;8.768;2022-08-14T05:07:50;7.50;;;6.53;;
6505;SDS011;3286;49.858;8.768;2022-08-14T05:10:17;7.13;;;6.43;;
6505;SDS011;3286;49.858;8.768;2022-08-14T05:12:49;8.45;;;7.50;;
6505;SDS011;3286;49.858;8.768;2022-08-14T05:15:16;11.60;;;6.60;;
6505;SDS011;3286;49.858;8.768;2022-08-14T05:17:43;11.55;;;6.68;;
6505;SDS011;3286;49.858;8.768;2022-08-14T05:20:10;7.80;;;7.00;;
6505;SDS011;3286;49.858;8.768;2022-08-14T05:22:37;8.52;;;7.45;;
6505;SDS011;3286;49.858;8.768;2022-08-14T05:25:04;10.35;;;6.97;;
6505;SDS011;3286;49.858;8.768;2022-08-14T05:27:31;7.45;;;6.72;;
6505;SDS011;3286;49.858;8.768;2022-08-14T05:30:02;8.23;;;6.97;;
6505;SDS011;3286;49.858;8.768;2022-08-14T05:32:29;7.85;;;6.78;;
6505;SDS011;3286;49.858;8.768;2022-08-14T05:34:57;12.25;;;7.65;;
6505;SDS011;3286;49.858;8.768;2022-08-14T05:37:25;12.50;;;7.25;;
6505;SDS011;3286;49.858;8.768;2022-08-14T05:39:54;9.05;;;6.82;;
6505;SDS011;3286;49.858;8.768;2022-08-14T05:42:22;9.07;;;7.70;;
6505;SDS011;3286;49.858;8.768;2022-08-14T05:44:49;8.68;;;7.78;;
6505;SDS011;3286;49.858;8.768;2022-08-14T05:47:17;12.57;;;7.88;;
6505;SDS011;3286;49.858;8.768;2022-08-14T05:49:43;8.88;;;7.63;;
6505;SDS011;3286;49.858;8.768;2022-08-14T05:52:12;9.18;;;7.47;;
6505;SDS011;3286;49.858;8.768;2022-08-14T05:54:39;8.13;;;7.18;;
6505;SDS011;3286;49.858;8.768;2022-08-14T05:57:06;11.15;;;7.97;;
6505;SDS011;3286;49.858;8.768;2022-08-14T05:59:32;12.55;;;7.38;;
6505;SDS011;3286;49.858;8.768;2022-08-14T06:02:00;8.90;;;7.40;;
6505;SDS011;3286;49.858;8.768;2022-08-14T06:04:28;10.60;;;8.10;;
6505;SDS011;3286;49.858;8.768;2022-08-14T06:06:54;9.90;;;7.47;;
6505;SDS011;3286;49.858;8.768;2022-08-14T06:09:21;8.70;;;7.80;;
6505;SDS011;3286;49.858;8.768;2022-08-14T06:11:48;9.02;;;8.13;;
6505;SDS011;3286;49.858;8.768;2022-08-14T06:14:14;8.75;;;7.50;;
6505;SDS011;3286;49.858;8.768;2022-08-14T06:16:41;8.93;;;8.02;;
6505;SDS011;3286;49.858;8.768;2022-08-14T06:19:09;8.60;;;7.20;;
6505;SDS011;3286;49.858;8.768;2022-08-14T06:21:37;8.07;;;7.28;;
6505;SDS011;3286;49.858;8.768;2022-08-14T06:24:04;9.77;;;7.78;;
6505;SDS011;3286;49.858;8.768;2022-08-14T06:26:31;11.40;;;7.78;;
6505;SDS011;3286;49.858;8.768;2022-08-14T06:28:58;8.50;;;7.47;;
6505;SDS011;3286;49.858;8.768;2022-08-14T06:31:24;8.63;;;7.68;;
6505;SDS011;3286;49.858;8.768;2022-08-14T06:33:51;8.65;;;7.82;;
6505;SDS011;3286;49.858;8.768;2022-08-14T06:36:18;8.80;;;7.90;;
6505;SDS011;3286;49.858;8.768;2022-08-14T06:38:46;8.85;;;7.28;;
6505;SDS011;3286;49.858;8.768;2022-08-14T06:41:12;8.48;;;7.45;;
6505;SDS011;3286;49.858;8.768;2022-08-14T06:43:39;7.40;;;6.70;;
6505;SDS011;3286;49.858;8.768;2022-08-14T06:46:06;7.65;;;6.95;;
6505;SDS011;3286;49.858;8.768;2022-08-14T06:48:33;10.40;;;7.00;;
6505;SDS011;3286;49.858;8.768;2022-08-14T06:51:00;8.95;;;7.10;;
6505;SDS011;3286;49.858;8.768;2022-08-14T06:53:27;10.32;;;6.75;;
6505;SDS011;3286;49.858;8.768;2022-08-14T06:55:55;7.90;;;7.13;;
6505;SDS011;3286;49.858;8.768;2022-08-14T06:58:22;10.00;;;7.22;;
6505;SDS011;3286;49.858;8.768;2022-08-14T07:00:49;11.00;;;6.93;;
6505;SDS011;3286;49.858;8.768;2022-08-14T07:03:33;13.35;;;6.63;;
6505;SDS011;3286;49.858;8.768;2022-08-14T07:06:19;10.90;;;6.72;;
6505;SDS011;3286;49.858;8.768;2022-08-14T07:08:46;7.15;;;6.40;;
6505;SDS011;3286;49.858;8.768;2022-08-14T07:11:14;12.88;;;6.57;;
6505;SDS011;3286;49.858;8.768;2022-08-14T07:13:41;7.18;;;6.47;;
6505;SDS011;3286;49.858;8.768;2022-08-14T07:16:08;7.07;;;6.15;;
6505;SDS011;3286;49.858;8.768;2022-08-14T07:18:37;13.80;;;6.70;;
6505;SDS011;3286;49.858;8.768;2022-08-14T07:21:05;10.63;;;7.28;;
6505;SDS011;3286;49.858;8.768;2022-08-14T07:23:34;7.18;;;6.40;;
6505;SDS011;3286;49.858;8.768;2022-08-14T07:26:04;7.03;;;6.40;;
6505;SDS011;3286;49.858;8.768;2022-08-14T07:28:33;7.22;;;5.93;;
6505;SDS011;3286;49.858;8.768;2022-08-14T07:31:02;7.07;;;6.47;;
6505;SDS011;3286;49.858;8.768;2022-08-14T07:33:31;6.57;;;5.88;;
6505;SDS011;3286;49.858;8.768;2022-08-14T07:36:00;11.80;;;6.20;;
6505;SDS011;3286;49.858;8.768;2022-08-14T07:38:29;7.35;;;6.00;;
6505;SDS011;3286;49.858;8.768;2022-08-14T07:40:56;5.43;;;4.93;;
6505;SDS011;3286;49.858;8.768;2022-08-14T07:43:23;6.30;;;5.70;;
6505;SDS011;3286;49.858;8.768;2022-08-14T07:45:52;6.60;;;5.57;;
6505;SDS011;3286;49.858;8.768;2022-08-14T07:48:19;8.48;;;5.80;;
6505;SDS011;3286;49.858;8.768;2022-08-14T07:50:46;6.05;;;5.45;;
6505;SDS011;3286;49.858;8.768;2022-08-14T07:53:14;6.75;;;5.65;;
6505;SDS011;3286;49.858;8.768;2022-08-14T07:55:42;6.13;;;5.18;;
6505;SDS011;3286;49.858;8.768;2022-08-14T07:58:10;7.07;;;5.47;;
6505;SDS011;3286;49.858;8.768;2022-08-14T08:00:37;11.15;;;5.60;;
6505;SDS011;3286;49.858;8.768;2022-08-14T08:03:06;11.95;;;5.20;;
6505;SDS011;3286;49.858;8.768;2022-08-14T08:05:35;9.50;;;5.00;;
6505;SDS011;3286;49.858;8.768;2022-08-14T08:08:03;5.43;;;4.93;;
6505;SDS011;3286;49.858;8.768;2022-08-14T08:10:30;5.85;;;5.03;;
6505;SDS011;3286;49.858;8.768;2022-08-14T08:12:59;8.98;;;5.47;;
6505;SDS011;3286;49.858;8.768;2022-08-14T08:15:28;5.70;;;5.20;;
6505;SDS011;3286;49.858;8.768;2022-08-14T08:17:56;6.25;;;5.13;;
6505;SDS011;3286;49.858;8.768;2022-08-14T08:20:25;10.13;;;5.22;;
6505;SDS011;3286;49.858;8.768;2022-08-14T08:22:53;5.90;;;5.38;;
6505;SDS011;3286;49.858;8.768;2022-08-14T08:25:22;18.50;;;5.28;;
6505;SDS011;3286;49.858;8.768;2022-08-14T08:27:53;8.10;;;4.90;;
6505;SDS011;3286;49.858;8.768;2022-08-14T08:30:24;5.13;;;4.65;;
6505;SDS011;3286;49.858;8.768;2022-08-14T08:32:52;7.10;;;4.90;;
6505;SDS011;3286;49.858;8.768;2022-08-14T08:35:22;4.93;;;4.38;;
6505;SDS011;3286;49.858;8.768;2022-08-14T08:37:52;5.97;;;4.88;;
6505;SDS011;3286;49.858;8.768;2022-08-14T08:40:21;6.70;;;5.28;;
6505;SDS011;3286;49.858;8.768;2022-08-14T08:42:49;5.30;;;4.82;;
6505;SDS011;3286;49.858;8.768;2022-08-14T08:45:15;5.18;;;4.68;;
6505;SDS011;3286;49.858;8.768;2022-08-14T08:47:43;10.68;;;5.18;;
6505;SDS011;3286;49.858;8.768;2022-08-14T08:50:21;8.60;;;4.35;;
6505;SDS011;3286;49.858;8.768;2022-08-14T08:52:50;5.20;;;4.65;;
6505;SDS011;3286;49.858;8.768;2022-08-14T08:55:26;5.95;;;4.53;;
6505;SDS011;3286;49.858;8.768;2022-08-14T08:57:55;5.10;;;4.60;;
6505;SDS011;3286;49.858;8.768;2022-08-14T09:00:23;5.00;;;4.50;;
6505;SDS011;3286;49.858;8.768;2022-08-14T09:02:57;5.95;;;4.50;;
6505;SDS011;3286;49.858;8.768;2022-08-14T09:05:26;4.80;;;4.40;;
6505;SDS011;3286;49.858;8.768;2022-08-14T09:07:54;5.05;;;4.30;;
6505;SDS011;3286;49.858;8.768;2022-08-14T09:10:33;4.57;;;4.07;;
6505;SDS011;3286;49.858;8.768;2022-08-14T09:13:01;4.10;;;3.80;;
6505;SDS011;3286;49.858;8.768;2022-08-14T09:15:28;4.82;;;4.22;;
6505;SDS011;3286;49.858;8.768;2022-08-14T09:17:55;4.70;;;4.20;;
6505;SDS011;3286;49.858;8.768;2022-08-14T09:20:23;5.30;;;3.80;;
6505;SDS011;3286;49.858;8.768;2022-08-14T09:22:50;4.18;;;3.78;;
6505;SDS011;3286;49.858;8.768;2022-08-14T09:25:20;6.65;;;4.22;;
6505;SDS011;3286;49.858;8.768;2022-08-14T09:27:47;4.97;;;4.32;;
6505;SDS011;3286;49.858;8.768;2022-08-14T09:30:14;4.20;;;3.80;;
6505;SDS011;3286;49.858;8.768;2022-08-14T09:32:44;4.45;;;4.05;;
6505;SDS011;3286;49.858;8.768;2022-08-14T09:35:31;5.75;;;3.90;;
6505;SDS011;3286;49.858;8.768;2022-08-14T09:38:10;4.25;;;3.90;;
6505;SDS011;3286;49.858;8.768;2022-08-14T09:40:57;4.90;;;4.03;;
6505;SDS011;3286;49.858;8.768;2022-08-14T09:43:29;4.35;;;3.92;;
6505;SDS011;3286;49.858;8.768;2022-08-14T09:46:06;4.13;;;3.67;;
6505;SDS011;3286;49.858;8.768;2022-08-14T09:48:33;4.20;;;3.80;;
6505;SDS011;3286;49.858;8.768;2022-08-14T09:51:01;5.75;;;4.32;;
6505;SDS011;3286;49.858;8.768;2022-08-14T09:53:33;4.80;;;4.30;;
6505;SDS011;3286;49.858;8.768;2022-08-14T09:56:04;4.82;;;4.00;;
6505;SDS011;3286;49.858;8.768;2022-08-14T09:58:35;4.03;;;3.72;;
6505;SDS011;3286;49.858;8.768;2022-08-14T10:01:08;4.40;;;4.00;;
6505;SDS011;3286;49.858;8.768;2022-08-14T10:03:36;4.10;;;3.65;;
6505;SDS011;3286;49.858;8.768;2022-08-14T10:06:13;4.15;;;3.83;;
6505;SDS011;3286;49.858;8.768;2022-08-14T10:08:43;4.45;;;4.05;;
6505;SDS011;3286;49.858;8.768;2022-08-14T10:11:18;6.40;;;3.85;;
6505;SDS011;3286;49.858;8.768;2022-08-14T10:13:47;5.75;;;3.83;;
6505;SDS011;3286;49.858;8.768;2022-08-14T10:16:18;4.40;;;4.00;;
6505;SDS011;3286;49.858;8.768;2022-08-14T10:18:47;3.50;;;3.20;;
6505;SDS011;3286;49.858;8.768;2022-08-14T10:21:16;6.70;;;3.70;;
6505;SDS011;3286;49.858;8.768;2022-08-14T10:23:44;5.47;;;3.42;;
6505;SDS011;3286;49.858;8.768;2022-08-14T10:26:14;4.03;;;3.53;;
6505;SDS011;3286;49.858;8.768;2022-08-14T10:28:49;4.95;;;3.40;;
6505;SDS011;3286;49.858;8.768;2022-08-14T10:31:18;4.28;;;3.67;;
6505;SDS011;3286;49.858;8.768;2022-08-14T10:34:00;4.32;;;3.13;;
6505;SDS011;3286;49.858;8.768;2022-08-14T10:36:29;3.72;;;3.20;;
6505;SDS011;3286;49.858;8.768;2022-08-14T10:39:01;4.43;;;3.35;;
6505;SDS011;3286;49.858;8.768;2022-08-14T10:41:38;4.70;;;3.63;;
6505;SDS011;3286;49.858;8.768;2022-08-14T10:44:08;6.32;;;3.40;;
6505;SDS011;3286;49.858;8.768;2022-08-14T10:46:38;3.92;;;3.63;;
6505;SDS011;3286;49.858;8.768;2022-08-14T10:49:06;4.20;;;3.28;;
6505;SDS011;3286;49.858;8.768;2022-08-14T10:51:53;3.83;;;3.53;;
6505;SDS011;3286;49.858;8.768;2022-08-14T10:54:28;3.47;;;3.17;;
6505;SDS011;3286;49.858;8.768;2022-08-14T10:56:59;3.75;;;3.40;;
6505;SDS011;3286;49.858;8.768;2022-08-14T10:59:40;4.53;;;3.30;;
6505;SDS011;3286;49.858;8.768;2022-08-14T11:02:19;5.00;;;3.03;;
6505;SDS011;3286;49.858;8.768;2022-08-14T11:05:00;3.60;;;3.30;;
6505;SDS011;3286;49.858;8.768;2022-08-14T11:07:32;10.38;;;3.42;;
6505;SDS011;3286;49.858;8.768;2022-08-14T11:10:00;4.63;;;3.20;;
6505;SDS011;3286;49.858;8.768;2022-08-14T11:12:39;7.97;;;3.17;;
6505;SDS011;3286;49.858;8.768;2022-08-14T11:15:10;3.83;;;2.80;;
6505;SDS011;3286;49.858;8.768;2022-08-14T11:17:37;3.70;;;3.40;;
6505;SDS011;3286;49.858;8.768;2022-08-14T11:20:05;14.25;;;11.23;;
6505;SDS011;3286;49.858;8.768;2022-08-14T11:22:34;3.70;;;3.40;;
6505;SDS011;3286;49.858;8.768;2022-08-14T11:25:06;3.80;;;2.80;;
6505;SDS011;3286;49.858;8.768;2022-08-14T11:27:35;4.68;;;2.80;;
6505;SDS011;3286;49.858;8.768;2022-08-14T11:30:06;6.70;;;3.00;;
6505;SDS011;3286;49.858;8.768;2022-08-14T11:32:35;3.60;;;2.75;;
6505;SDS011;3286;49.858;8.768;2022-08-14T11:35:05;3.53;;;2.88;;
6505;SDS011;3286;49.858;8.768;2022-08-14T11:37:32;3.35;;;3.03;;
6505;SDS011;3286;49.858;8.768;2022-08-14T11:39:59;2.78;;;2.58;;
6505;SDS011;3286;49.858;8.768;2022-08-14T11:42:28;4.57;;;2.45;;
6505;SDS011;3286;49.858;8.768;2022-08-14T11:44:58;3.95;;;3.65;;
6505;SDS011;3286;49.858;8.768;2022-08-14T11:47:31;2.80;;;2.60;;
6505;SDS011;3286;49.858;8.768;2022-08-14T11:49:58;3.40;;;3.10;;
6505;SDS011;3286;49.858;8.768;2022-08-14T11:52:32;3.33;;;2.63;;
6505;SDS011;3286;49.858;8.768;2022-08-14T11:55:01;3.50;;;3.15;;
6505;SDS011;3286;49.858;8.768;2022-08-14T11:57:35;3.33;;;2.60;;
6505;SDS011;3286;49.858;8.768;2022-08-14T12:00:05;3.22;;;2.58;;
6505;SDS011;3286;49.858;8.768;2022-08-14T12:02:33;2.75;;;2.42;;
6505;SDS011;3286;49.858;8.768;2022-08-14T12:05:01;3.65;;;3.03;;
6505;SDS011;3286;49.858;8.768;2022-08-14T12:07:29;3.25;;;2.95;;
6505;SDS011;3286;49.858;8.768;2022-08-14T12:09:57;7.28;;;2.85;;
6505;SDS011;3286;49.858;8.768;2022-08-14T12:12:25;4.07;;;3.10;;
6505;SDS011;3286;49.858;8.768;2022-08-14T12:14:54;2.92;;;2.72;;
6505;SDS011;3286;49.858;8.768;2022-08-14T12:17:26;4.93;;;2.72;;
6505;SDS011;3286;49.858;8.768;2022-08-14T12:19:54;3.40;;;3.10;;
6505;SDS011;3286;49.858;8.768;2022-08-14T12:22:32;6.68;;;3.00;;
6505;SDS011;3286;49.858;8.768;2022-08-14T12:25:00;3.65;;;2.67;;
6505;SDS011;3286;49.858;8.768;2022-08-14T12:27:35;8.25;;;3.10;;
6505;SDS011;3286;49.858;8.768;2022-08-14T12:30:03;6.95;;;3.28;;
6505;SDS011;3286;49.858;8.768;2022-08-14T12:32:38;4.93;;;2.97;;
6505;SDS011;3286;49.858;8.768;2022-08-14T12:35:08;3.20;;;2.90;;
6505;SDS011;3286;49.858;8.768;2022-08-14T12:37:36;5.75;;;2.67;;
6505;SDS011;3286;49.858;8.768;2022-08-14T12:40:07;4.13;;;2.78;;
6505;SDS011;3286;49.858;8.768;2022-08-14T12:42:38;4.82;;;3.10;;
6505;SDS011;3286;49.858;8.768;2022-08-14T12:45:06;2.60;;;2.40;;
6505;SDS011;3286;49.858;8.768;2022-08-14T12:47:37;3.40;;;3.10;;
6505;SDS011;3286;49.858;8.768;2022-08-14T12:50:06;3.33;;;2.58;;
6505;SDS011;3286;49.858;8.768;2022-08-14T12:52:34;2.95;;;2.70;;
6505;SDS011;3286;49.858;8.768;2022-08-14T12:55:06;3.50;;;3.03;;
6505;SDS011;3286;49.858;8.768;2022-08-14T12:57:35;5.13;;;2.92;;
6505;SDS011;3286;49.858;8.768;2022-08-14T13:00:12;3.20;;;3.00;;
6505;SDS011;3286;49.858;8.768;2022-08-14T13:02:43;4.25;;;3.17;;
6505;SDS011;3286;49.858;8.768;2022-08-14T13:05:11;5.50;;;2.72;;
6505;SDS011;3286;49.858;8.768;2022-08-14T13:07:40;4.90;;;2.85;;
6505;SDS011;3286;49.858;8.768;2022-08-14T13:10:09;4.25;;;2.97;;
6505;SDS011;3286;49.858;8.768;2022-08-14T13:12:38;3.22;;;2.92;;
6505;SDS011;3286;49.858;8.768;2022-08-14T13:15:07;4.80;;;3.10;;
6505;SDS011;3286;49.858;8.768;2022-08-14T13:17:39;4.65;;;3.00;;
6505;SDS011;3286;49.858;8.768;2022-08-14T13:20:10;3.28;;;2.97;;
6505;SDS011;3286;49.858;8.768;2022-08-14T13:22:40;3.92;;;2.95;;
6505;SDS011;3286;49.858;8.768;2022-08-14T13:25:09;3.60;;;3.17;;
6505;SDS011;3286;49.858;8.768;2022-08-14T13:27:38;3.78;;;3.22;;
6505;SDS011;3286;49.858;8.768;2022-08-14T13:30:08;4.78;;;3.10;;
6505;SDS011;3286;49.858;8.768;2022-08-14T13:32:37;7.85;;;3.70;;
6505;SDS011;3286;49.858;8.768;2022-08-14T13:35:05;3.33;;;3.00;;
6505;SDS011;3286;49.858;8.768;2022-08-14T13:37:38;3.83;;;3.15;;
6505;SDS011;3286;49.858;8.768;2022-08-14T13:40:10;6.65;;;3.55;;
6505;SDS011;3286;49.858;8.768;2022-08-14T13:42:42;7.00;;;3.40;;
6505;SDS011;3286;49.858;8.768;2022-08-14T13:45:13;3.40;;;2.80;;
6505;SDS011;3286;49.858;8.768;2022-08-14T13:47:49;4.80;;;3.40;;
6505;SDS011;3286;49.858;8.768;2022-08-14T13:50:19;5.97;;;3.47;;
6505;SDS011;3286;49.858;8.768;2022-08-14T13:52:51;4.22;;;3.28;;
6505;SDS011;3286;49.858;8.768;2022-08-14T13:55:19;4.68;;;3.50;;
6505;SDS011;3286;49.858;8.768;2022-08-14T13:57:48;10.05;;;3.20;;
6505;SDS011;3286;49.858;8.768;2022-08-14T14:00:16;3.28;;;2.97;;
6505;SDS011;3286;49.858;8.768;2022-08-14T14:02:44;4.43;;;3.00;;
6505;SDS011;3286;49.858;8.768;2022-08-14T14:05:13;3.53;;;3.22;;
6505;SDS011;3286;49.858;8.768;2022-08-14T14:07:44;4.03;;;3.30;;
6505;SDS011;3286;49.858;8.768;2022-08-14T14:10:14;3.40;;;3.13;;
6505;SDS011;3286;49.858;8.768;2022-08-14T14:12:44;3.67;;;3.13;;
6505;SDS011;3286;49.858;8.768;2022-08-14T14:15:12;4.20;;;3.53;;
6505;SDS011;3286;49.858;8.768;2022-08-14T14:17:40;3.78;;;3.47;;
6505;SDS011;3286;49.858;8.768;2022-08-14T14:20:08;3.92;;;3.42;;
6505;SDS011;3286;49.858;8.768;2022-08-14T14:22:38;3.35;;;3.05;;
6505;SDS011;3286;49.858;8.768;2022-08-14T14:25:06;3.60;;;3.30;;
6505;SDS011;3286;49.858;8.768;2022-08-14T14:27:35;3.92;;;3.55;;
6505;SDS011;3286;49.858;8.768;2022-08-14T14:30:03;5.60;;;3.47;;
6505;SDS011;3286;49.858;8.768;2022-08-14T14:32:31;3.70;;;3.28;;
6505;SDS011;3286;49.858;8.768;2022-08-14T14:34:59;3.90;;;3.53;;
6505;SDS011;3286;49.858;8.768;2022-08-14T14:37:27;3.92;;;3.60;;
6505;SDS011;3286;49.858;8.768;2022-08-14T14:39:55;4.35;;;3.95;;
6505;SDS011;3286;49.858;8.768;2022-08-14T14:42:23;6.25;;;3.63;;
6505;SDS011;3286;49.858;8.768;2022-08-14T14:44:54;6.45;;;3.38;;
6505;SDS011;3286;49.858;8.768;2022-08-14T14:47:24;6.15;;;3.45;;
6505;SDS011;3286;49.858;8.768;2022-08-14T14:49:51;5.05;;;3.17;;
6505;SDS011;3286;49.858;8.768;2022-08-14T14:52:18;3.92;;;3.53;;
6505;SDS011;3286;49.858;8.768;2022-08-14T14:54:47;3.88;;;3.00;;
6505;SDS011;3286;49.858;8.768;2022-08-14T14:57:15;4.97;;;3.53;;
6505;SDS011;3286;49.858;8.768;2022-08-14T14:59:42;3.40;;;3.10;;
6505;SDS011;3286;49.858;8.768;2022-08-14T15:02:13;3.78;;;3.47;;
6505;SDS011;3286;49.858;8.768;2022-08-14T15:04:53;3.75;;;3.33;;
6505;SDS011;3286;49.858;8.768;2022-08-14T15:07:20;3.67;;;3.38;;
6505;SDS011;3286;49.858;8.768;2022-08-14T15:09:46;7.28;;;3.60;;
6505;SDS011;3286;49.858;8.768;2022-08-14T15:12:13;3.70;;;3.40;;
6505;SDS011;3286;49.858;8.768;2022-08-14T15:14:41;4.38;;;3.10;;
6505;SDS011;3286;49.858;8.768;2022-08-14T15:17:08;23.02;;;4.30;;
6505;SDS011;3286;49.858;8.768;2022-08-14T15:19:36;6.75;;;3.90;;
6505;SDS011;3286;49.858;8.768;2022-08-14T15:22:03;6.47;;;3.35;;
6505;SDS011;3286;49.858;8.768;2022-08-14T15:24:30;6.68;;;3.78;;
6505;SDS011;3286;49.858;8.768;2022-08-14T15:26:57;3.30;;;2.72;;
6505;SDS011;3286;49.858;8.768;2022-08-14T15:29:24;3.60;;;3.13;;